Time;durP1;ratioP1;P1;durP2;ratioP2;P2;SDS_P1;SDS_P2;PMS_P1;PMS_P2;Temp;Humidity;BMP_temperature;BMP_pressure;BME280_temperature;BME280_humidity;BME280_pressure;Samples;Min_cycle;Max_cycle;Signal;HPM_P1;HPM_P2
2023/12/14 00:06:38;;;;;;;3.17;1.80;;;;;;;;;;20632361;28;20298;-84
2023/12/14 00:16:40;;;;;;;1.23;0.80;;;;;;;;;;20654920;28;20212;-86
2023/12/14 00:26:42;;;;;;;1.80;1.27;;;;;;;;;;20614192;28;20298;-85
2023/12/14 00:36:44;;;;;;;2.40;1.20;;;;;;;;;;20661030;28;20585;-86
2023/12/14 00:46:46;;;;;;;1.07;0.70;;;;;;;;;;20703591;28;20231;-85
2023/12/14 00:56:47;;;;;;;1.67;0.50;;;;;;;;;;20645293;28;20212;-86
2023/12/14 01:06:49;;;;;;;1.13;0.67;;;;;;;;;;20639595;28;20294;-85
2023/12/14 01:16:51;;;;;;;1.10;0.60;;;;;;;;;;20645016;28;20262;-84
2023/12/14 01:26:53;;;;;;;1.47;0.80;;;;;;;;;;20658491;28;20612;-85
2023/12/14 01:36:54;;;;;;;1.40;0.60;;;;;;;;;;20649193;28;20228;-84
2023/12/14 01:46:56;;;;;;;2.23;0.90;;;;;;;;;;20636540;28;20223;-81
2023/12/14 01:56:58;;;;;;;1.43;0.97;;;;;;;;;;20657648;28;20216;-82
2023/12/14 02:07:00;;;;;;;1.50;0.80;;;;;;;;;;20650622;28;20269;-83
2023/12/14 02:17:02;;;;;;;1.13;0.80;;;;;;;;;;20609532;28;20220;-84
2023/12/14 02:27:04;;;;;;;1.93;1.00;;;;;;;;;;20677938;28;20693;-83
2023/12/14 02:37:05;;;;;;;1.53;1.20;;;;;;;;;;20649992;28;20220;-84
2023/12/14 02:47:07;;;;;;;1.80;1.00;;;;;;;;;;20652244;28;20223;-85
2023/12/14 02:57:09;;;;;;;0.80;0.70;;;;;;;;;;20644190;28;20287;-83
2023/12/14 03:07:10;;;;;;;1.70;0.80;;;;;;;;;;20664254;28;20227;-86
2023/12/14 03:17:12;;;;;;;1.13;0.80;;;;;;;;;;20653987;28;20842;-87
2023/12/14 03:27:15;;;;;;;1.00;0.80;;;;;;;;;;20646864;28;20232;-86
2023/12/14 03:37:16;;;;;;;1.93;1.10;;;;;;;;;;20610028;28;20573;-85
2023/12/14 03:47:18;;;;;;;2.13;0.87;;;;;;;;;;20638638;28;20251;-87
2023/12/14 03:57:20;;;;;;;1.23;0.80;;;;;;;;;;20654961;28;20208;-87
2023/12/14 04:07:22;;;;;;;1.30;0.80;;;;;;;;;;20687678;28;20305;-84
2023/12/14 04:17:24;;;;;;;1.53;0.73;;;;;;;;;;20675164;28;20208;-82
2023/12/14 04:27:28;;;;;;;2.77;1.40;;;;;;;;;;20652462;28;20271;-85
2023/12/14 04:37:30;;;;;;;0.83;0.73;;;;;;;;;;20630534;28;20767;-83
2023/12/14 04:47:32;;;;;;;2.00;0.90;;;;;;;;;;20634320;28;20286;-84
2023/12/14 04:57:34;;;;;;;2.53;0.73;;;;;;;;;;20636576;28;20224;-84
2023/12/14 05:07:36;;;;;;;1.10;0.60;;;;;;;;;;20643768;28;20647;-85
2023/12/14 05:17:37;;;;;;;0.87;0.57;;;;;;;;;;20625311;28;20215;-84
2023/12/14 05:27:39;;;;;;;1.23;0.70;;;;;;;;;;20642672;28;20279;-84
2023/12/14 05:37:41;;;;;;;3.83;1.73;;;;;;;;;;20644428;28;20263;-88
2023/12/14 05:47:43;;;;;;;5.03;1.73;;;;;;;;;;20629086;28;20708;-84
2023/12/14 05:57:45;;;;;;;4.40;1.40;;;;;;;;;;20618563;28;20216;-85
2023/12/14 06:07:47;;;;;;;1.50;1.10;;;;;;;;;;20641134;28;20260;-82
2023/12/14 06:17:49;;;;;;;1.73;1.00;;;;;;;;;;20637416;28;20224;-83
2023/12/14 06:27:51;;;;;;;2.23;1.33;;;;;;;;;;20655017;28;20228;-84
2023/12/14 06:37:53;;;;;;;1.47;0.83;;;;;;;;;;20634653;28;20228;-84
2023/12/14 06:47:55;;;;;;;2.20;1.30;;;;;;;;;;20648476;28;20285;-83
2023/12/14 06:57:57;;;;;;;2.47;1.33;;;;;;;;;;20665405;28;20220;-83
2023/12/14 07:07:59;;;;;;;4.60;2.70;;;;;;;;;;20628080;28;20632;-83
2023/12/14 07:18:00;;;;;;;1.70;1.07;;;;;;;;;;20633887;28;20573;-81
2023/12/14 07:28:02;;;;;;;1.63;1.03;;;;;;;;;;20644498;28;20219;-84
2023/12/14 07:38:04;;;;;;;2.13;1.30;;;;;;;;;;20633538;28;20282;-82
2023/12/14 07:48:16;;;;;;;2.13;1.17;;;;;;;;;;20646083;28;20290;-85
2023/12/14 07:58:27;;;;;;;3.20;1.27;;;;;;;;;;20636546;28;20223;-85
2023/12/14 08:08:38;;;;;;;2.13;1.43;;;;;;;;;;20623881;28;20253;-85
2023/12/14 08:18:55;;;;;;;;;;;;;;;;;;;;;
2023/12/14 08:29:06;;;;;;;1.87;1.30;;;;;;;;;;20635812;28;20286;-85
2023/12/14 08:39:13;;;;;;;2.47;1.43;;;;;;;;;;20601209;28;20220;-85
2023/12/14 08:49:24;;;;;;;2.53;1.10;;;;;;;;;;20610549;28;20238;-86
2023/12/14 08:59:26;;;;;;;4.27;2.13;;;;;;;;;;20650393;28;20219;-86
2023/12/14 09:09:28;;;;;;;3.10;1.77;;;;;;;;;;20633813;28;20291;-85
2023/12/14 09:19:31;;;;;;;3.90;2.20;;;;;;;;;;20641004;28;20208;-83
2023/12/14 09:29:33;;;;;;;2.97;1.20;;;;;;;;;;20644649;28;20689;-86
2023/12/14 09:39:36;;;;;;;3.33;1.77;;;;;;;;;;20669027;22;20236;-70
2023/12/14 09:49:40;;;;;;;3.73;1.27;;;7.50;99.90;;;;;;20597401;28;20259;-70
2023/12/14 09:59:51;;;;;;;1.70;1.07;;;;;;;;;;20540139;28;20245;-70
2023/12/14 10:09:53;;;;;;;3.10;1.67;;;;;;;;;;20555701;28;20211;-70
2023/12/14 10:19:55;;;;;;;3.23;1.60;;;;;;;;;;20550952;28;20244;-69
2023/12/14 10:29:57;;;;;;;2.00;1.57;;;;;;;;;;20546245;28;20280;-69
2023/12/14 10:40:00;;;;;;;2.80;1.63;;;7.90;99.90;;;;;;20542543;28;20307;-69
2023/12/14 10:50:02;;;;;;;3.03;2.20;;;;;;;;;;20514147;28;20225;-69
2023/12/14 11:00:07;;;;;;;8.37;5.73;;;7.70;99.90;;;;;;20532905;28;20632;-69
2023/12/14 11:10:09;;;;;;;4.93;2.50;;;;;;;;;;20520810;28;20275;-69
2023/12/14 11:20:27;;;;;;;4.30;2.53;;;8.20;99.90;;;;;;20545086;28;20245;-69
2023/12/14 11:30:29;;;;;;;3.47;2.37;;;;;;;;;;20521250;28;20252;-69
2023/12/14 11:40:31;;;;;;;4.63;2.80;;;;;;;;;;20536079;28;20307;-69
2023/12/14 11:50:34;;;;;;;5.17;3.17;;;8.20;99.90;;;;;;20555296;28;20260;-69
2023/12/14 12:00:39;;;;;;;5.23;3.10;;;;;;;;;;20551930;28;20700;-69
2023/12/14 12:10:42;;;;;;;4.67;2.63;;;;;;;;;;20530395;28;20300;-69
2023/12/14 12:20:44;;;;;;;3.53;1.97;;;;;;;;;;20548523;28;20216;-68
2023/12/14 12:30:45;;;;;;;4.00;1.87;;;;;;;;;;20691010;23;20702;-78
2023/12/14 12:40:47;;;;;;;2.10;1.50;;;;;;;;;;20655014;28;20714;-76
2023/12/14 12:50:49;;;;;;;2.10;1.50;;;;;;;;;;20624785;28;20582;-77
2023/12/14 13:00:50;;;;;;;2.43;1.43;;;;;;;;;;20597926;28;20232;-75
2023/12/14 13:10:53;;;;;;;1.30;0.87;;;;;;;;;;20621849;28;20224;-76
2023/12/14 13:20:55;;;;;;;2.00;0.90;;;;;;;;;;20639096;28;20220;-75
2023/12/14 13:30:57;;;;;;;1.80;1.03;;;;;;;;;;20608185;28;20223;-76
2023/12/14 13:40:59;;;;;;;2.00;0.90;;;;;;;;;;20577846;28;20421;-74
2023/12/14 13:51:00;;;;;;;2.53;1.20;;;;;;;;;;20632267;28;20532;-73
2023/12/14 14:01:02;;;;;;;3.43;2.03;;;;;;;;;;20640769;28;20753;-74
2023/12/14 14:11:04;;;;;;;3.83;2.50;;;;;;;;;;20653046;28;20212;-73
2023/12/14 14:21:08;;;;;;;3.40;2.20;;;;;;;;;;20650787;28;20761;-74
2023/12/14 14:31:09;;;;;;;4.47;2.00;;;;;;;;;;20649759;28;20286;-74
2023/12/14 14:41:11;;;;;;;3.20;1.83;;;;;;;;;;20645270;28;20251;-74
2023/12/14 14:51:13;;;;;;;3.43;2.00;;;;;;;;;;20653411;28;21146;-74
2023/12/14 15:01:15;;;;;;;3.40;2.00;;;;;;;;;;20628771;28;20212;-74
2023/12/14 15:11:16;;;;;;;2.43;1.33;;;;;;;;;;20643495;28;20703;-73
2023/12/14 15:21:18;;;;;;;2.10;1.30;;;;;;;;;;20648746;28;20215;-73
2023/12/14 15:31:20;;;;;;;1.43;1.00;;;;;;;;;;20648794;28;20236;-74
2023/12/14 15:41:22;;;;;;;1.97;1.33;;;;;;;;;;20622846;28;20247;-74
2023/12/14 15:51:24;;;;;;;1.70;1.10;;;;;;;;;;20652444;28;20282;-74
2023/12/14 16:01:25;;;;;;;2.13;1.30;;;;;;;;;;20602337;28;20225;-75
2023/12/14 16:11:27;;;;;;;1.77;1.13;;;;;;;;;;20624820;28;20766;-75
2023/12/14 16:21:30;;;;;;;2.83;1.57;;;;;;;;;;20604359;28;20275;-75
2023/12/14 16:31:31;;;;;;;1.10;0.80;;;;;;;;;;20609196;28;20223;-75
2023/12/14 16:41:33;;;;;;;1.73;1.00;;;;;;;;;;20594031;28;20224;-75
2023/12/14 16:51:35;;;;;;;0.90;0.67;;;;;;;;;;20624366;28;20773;-75
2023/12/14 17:01:40;;;;;;;1.07;0.60;;;;;;;;;;20641079;28;20236;-74
2023/12/14 17:11:41;;;;;;;0.80;0.43;;;;;;;;;;20623200;28;20243;-75
2023/12/14 17:21:44;;;;;;;0.67;0.40;;;;;;;;;;20604981;28;20216;-74
2023/12/14 17:31:46;;;;;;;0.50;0.37;;;;;;;;;;20602938;28;20228;-74
2023/12/14 17:41:47;;;;;;;2.73;0.60;;;;;;;;;;20589156;28;20298;-74
2023/12/14 17:51:50;;;;;;;1.80;0.40;;;;;;;;;;20630859;28;20228;-75
2023/12/14 18:01:52;;;;;;;2.70;0.40;;;;;;;;;;20643608;28;20220;-75
2023/12/14 18:11:54;;;;;;;0.93;0.40;;;;;;;;;;20635189;28;20681;-74
2023/12/14 18:21:56;;;;;;;0.70;0.40;;;;;;;;;;20617321;28;20635;-75
2023/12/14 18:31:57;;;;;;;0.77;0.53;;;;;;;;;;20633936;28;20220;-75
2023/12/14 18:41:59;;;;;;;0.53;0.33;;;;;;;;;;20619029;28;20227;-75
2023/12/14 18:52:01;;;;;;;0.73;0.47;;;;;;;;;;20633779;28;20216;-75
2023/12/14 19:02:02;;;;;;;0.97;0.53;;;;;;;;;;20620009;28;20228;-75
2023/12/14 19:12:04;;;;;;;1.23;0.80;;;;;;;;;;20652181;28;20219;-74
2023/12/14 19:22:06;;;;;;;0.83;0.60;;;;;;;;;;20565537;28;20274;-74
2023/12/14 19:32:09;;;;;;;1.33;0.80;;;;;;;;;;20596983;28;20220;-75
2023/12/14 19:42:11;;;;;;;5.13;3.03;;;;;;;;;;20549963;28;20232;-75
2023/12/14 19:52:13;;;;;;;1.57;1.07;;;;;;;;;;20581771;28;20267;-75
2023/12/14 20:02:14;;;;;;;2.33;1.13;;;;;;;;;;20584059;28;20247;-75
2023/12/14 20:12:17;;;;;;;0.90;0.60;;;;;;;;;;20589420;28;20256;-75
2023/12/14 20:22:19;;;;;;;2.50;1.03;;;;;;;;;;20711093;22;20235;-75
2023/12/14 20:32:20;;;;;;;2.10;0.83;;;;;;;;;;20678440;28;20278;-75
2023/12/14 20:42:22;;;;;;;2.80;1.47;;;;;;;;;;20672575;28;20240;-75
2023/12/14 20:52:24;;;;;;;1.43;0.83;;;;;;;;;;20693514;28;20694;-75
2023/12/14 21:02:26;;;;;;;1.87;1.00;;;;;;;;;;20664868;28;20235;-75
2023/12/14 21:12:28;;;;;;;2.13;1.00;;;;;;;;;;20627539;28;20216;-76
2023/12/14 21:22:29;;;;;;;2.53;1.10;;;;;;;;;;20644167;28;20228;-75
2023/12/14 21:32:32;;;;;;;1.63;1.10;;;;;;;;;;20635454;28;20278;-75
2023/12/14 21:42:34;;;;;;;2.33;1.40;;;;;;;;;;20645852;28;20297;-75
2023/12/14 21:52:35;;;;;;;2.17;1.10;;;;;;;;;;20624664;28;20228;-75
2023/12/14 22:02:37;;;;;;;2.20;1.40;;;;;;;;;;20627718;28;20290;-75
2023/12/14 22:12:39;;;;;;;2.03;1.30;;;;;;;;;;20644171;28;20224;-75
2023/12/14 22:22:40;;;;;;;2.23;1.10;;;;;;;;;;20637812;28;20250;-75
2023/12/14 22:32:42;;;;;;;1.77;1.10;;;;;;;;;;20628229;28;20290;-75
2023/12/14 22:42:44;;;;;;;2.67;1.10;;;;;;;;;;20628813;28;20691;-75
2023/12/14 22:52:45;;;;;;;1.17;0.87;;;;;;;;;;20623379;28;20678;-75
2023/12/14 23:02:47;;;;;;;1.50;0.80;;;;;;;;;;20648663;28;20211;-75
2023/12/14 23:12:49;;;;;;;2.57;0.97;;;;;;;;;;20627487;28;20216;-76
2023/12/14 23:22:51;;;;;;;1.53;1.10;;;;;;;;;;20612384;28;20224;-75
2023/12/14 23:32:52;;;;;;;1.33;0.77;;;;;;;;;;20619917;28;20212;-75
2023/12/14 23:42:55;;;;;;;2.53;1.40;;;;;;;;;;20636122;28;20282;-75
2023/12/14 23:52:58;;;;;;;2.00;1.10;;;;;;;;;;20630689;28;20216;-74
